createdAt,value
2018-12-06T00:01:37.824Z,99.55
2018-12-06T00:04:05.204Z,99.27
2018-12-06T00:06:32.611Z,100.00
2018-12-06T00:09:07.277Z,99.73
2018-12-06T00:11:34.655Z,98.81
2018-12-06T00:14:02.091Z,99.11
2018-12-06T00:16:29.484Z,98.64
2018-12-06T00:19:06.120Z,98.53
2018-12-06T00:21:33.608Z,99.46
2018-12-06T00:24:00.992Z,98.64
2018-12-06T00:26:28.737Z,98.66
2018-12-06T00:28:58.069Z,99.16
2018-12-06T00:31:25.490Z,99.51
2018-12-06T00:33:52.953Z,98.63
2018-12-06T00:36:20.348Z,99.06
2018-12-06T00:38:47.732Z,98.66
2018-12-06T00:41:15.116Z,99.22
2018-12-06T00:43:42.521Z,99.18
2018-12-06T00:46:09.905Z,98.67
2018-12-06T00:48:37.294Z,98.74
2018-12-06T00:51:04.695Z,99.10
2018-12-06T00:53:33.062Z,99.00
2018-12-06T00:56:00.452Z,99.62
2018-12-06T00:58:27.856Z,99.15
2018-12-06T01:00:55.240Z,98.75
2018-12-06T01:03:22.632Z,99.13
2018-12-06T01:05:50.068Z,99.15
2018-12-06T01:08:17.518Z,99.52
2018-12-06T01:10:44.910Z,98.38
2018-12-06T01:13:13.318Z,98.76
2018-12-06T01:15:40.711Z,97.95
2018-12-06T01:18:08.265Z,98.10
2018-12-06T01:20:35.653Z,98.50
2018-12-06T01:23:03.171Z,97.52
2018-12-06T01:25:30.559Z,98.58
2018-12-06T01:27:57.951Z,97.42
2018-12-06T01:30:25.347Z,98.02
2018-12-06T01:32:52.733Z,98.71
2018-12-06T01:38:16.309Z,99.64
2018-12-06T01:40:44.647Z,100.00
2018-12-06T01:43:13.145Z,100.00
2018-12-06T01:45:40.623Z,99.78
2018-12-06T01:48:08.128Z,100.00
2018-12-06T01:50:35.619Z,100.00
2018-12-06T01:53:03.004Z,99.75
2018-12-06T01:55:35.215Z,100.00
2018-12-06T01:58:02.681Z,99.88
2018-12-06T02:00:33.366Z,99.09
2018-12-06T02:03:03.868Z,99.60
2018-12-06T02:05:37.286Z,99.95
2018-12-06T02:08:04.686Z,98.48
2018-12-06T02:10:35.274Z,99.40
2018-12-06T02:13:02.733Z,99.29
2018-12-06T02:15:31.047Z,99.05
2018-12-06T02:17:58.435Z,99.09
2018-12-06T02:20:25.874Z,99.46
2018-12-06T02:22:53.267Z,98.88
2018-12-06T02:25:20.729Z,98.85
2018-12-06T02:27:48.124Z,99.04
2018-12-06T02:30:15.616Z,98.96
2018-12-06T02:32:43.108Z,98.79
2018-12-06T02:35:16.683Z,98.79
2018-12-06T02:37:51.044Z,98.66
2018-12-06T02:40:21.835Z,98.84
2018-12-06T02:42:49.220Z,97.76
2018-12-06T02:45:16.628Z,98.28
2018-12-06T02:47:44.039Z,98.13
2018-12-06T02:50:11.500Z,97.64
2018-12-06T02:52:45.284Z,98.47
2018-12-06T02:55:16.430Z,98.56
2018-12-06T02:57:43.871Z,98.79
2018-12-06T03:00:30.483Z,97.97
2018-12-06T03:02:57.885Z,99.00
2018-12-06T03:05:25.653Z,98.67
2018-12-06T03:07:53.090Z,98.84
2018-12-06T03:10:20.607Z,99.10
2018-12-06T03:12:54.609Z,98.81
2018-12-06T03:15:22.061Z,98.72
2018-12-06T03:17:49.450Z,98.13
2018-12-06T03:23:28.377Z,98.85
2018-12-06T03:41:12.312Z,98.16
2018-12-06T03:43:46.359Z,97.84
2018-12-06T03:46:15.736Z,97.71
2018-12-06T03:48:46.045Z,97.80
2018-12-06T03:51:19.868Z,98.28
2018-12-06T03:53:53.380Z,98.25
2018-12-06T03:56:27.356Z,97.41
2018-12-06T03:59:00.564Z,97.65
2018-12-06T04:01:34.642Z,97.16
2018-12-06T04:04:08.465Z,97.50
2018-12-06T04:06:38.579Z,97.28
2018-12-06T04:09:12.420Z,97.46
2018-12-06T04:11:43.529Z,97.58
2018-12-06T04:14:14.345Z,97.17
2018-12-06T04:16:47.478Z,97.12
2018-12-06T04:19:18.487Z,97.18
2018-12-06T04:21:49.476Z,96.91
2018-12-06T04:24:22.586Z,96.66
2018-12-06T04:26:53.780Z,96.87
2018-12-06T04:29:28.807Z,97.02
2018-12-06T04:31:57.821Z,97.06
2018-12-06T04:34:31.848Z,97.40
2018-12-06T04:37:14.310Z,97.17
2018-12-06T04:39:47.622Z,97.05
2018-12-06T04:42:18.753Z,98.09
2018-12-06T04:44:51.978Z,97.44
2018-12-06T04:47:26.114Z,96.85
2018-12-06T04:50:00.016Z,97.71
2018-12-06T04:52:30.192Z,97.32
2018-12-06T04:55:04.044Z,97.26
2018-12-06T04:57:38.017Z,96.56
2018-12-06T05:00:11.449Z,97.34
2018-12-06T05:02:45.448Z,97.15
2018-12-06T05:05:19.420Z,96.32
2018-12-06T05:07:53.409Z,96.60
2018-12-06T05:10:24.531Z,96.96
2018-12-06T05:12:57.658Z,96.51
2018-12-06T05:15:27.964Z,96.65
2018-12-06T05:17:59.171Z,96.06
2018-12-06T05:20:34.931Z,96.43
2018-12-06T05:23:06.228Z,95.76
2018-12-06T05:31:00.080Z,96.99
2018-12-06T05:33:33.896Z,96.26
2018-12-06T05:36:04.245Z,96.43
2018-12-06T05:38:34.667Z,96.49
2018-12-06T05:41:05.508Z,95.76
2018-12-06T05:43:36.686Z,95.61
2018-12-06T05:46:10.650Z,95.12
2018-12-06T05:48:39.751Z,95.89
2018-12-06T05:51:10.856Z,96.21
2018-12-06T05:53:41.256Z,97.48
2018-12-06T05:56:14.955Z,97.04
2018-12-06T05:58:48.868Z,96.19
2018-12-06T06:01:19.215Z,96.93
2018-12-06T06:03:49.542Z,96.61
2018-12-06T06:06:22.750Z,95.76
2018-12-06T06:09:01.614Z,96.54
2018-12-06T06:11:32.940Z,97.21
2018-12-06T06:14:02.143Z,97.46
2018-12-06T06:16:32.196Z,97.25
2018-12-06T06:19:10.989Z,97.69
2018-12-06T06:21:44.996Z,96.53
2018-12-06T06:24:14.124Z,97.50
2018-12-06T06:31:46.092Z,96.38
2018-12-06T06:34:17.343Z,97.29
2018-12-06T06:36:48.552Z,96.57
2018-12-06T06:39:19.581Z,97.29
2018-12-06T06:41:51.712Z,97.64
2018-12-06T06:44:22.896Z,97.49
2018-12-06T06:46:54.165Z,98.45
2018-12-06T06:49:27.637Z,98.73
2018-12-06T06:51:58.844Z,98.62
2018-12-06T06:54:29.066Z,98.22
2018-12-06T06:57:03.020Z,98.21
2018-12-06T06:59:36.889Z,98.12
2018-12-06T07:02:06.128Z,97.90
2018-12-06T07:04:39.920Z,97.72
2018-12-06T07:07:18.998Z,97.11
2018-12-06T07:09:48.079Z,98.24
2018-12-06T07:12:21.990Z,97.47
2018-12-06T07:14:56.110Z,96.83
2018-12-06T07:17:29.933Z,96.94
2018-12-06T07:20:00.954Z,98.20
2018-12-06T07:22:32.063Z,98.76
2018-12-06T07:25:00.886Z,98.58
2018-12-06T07:27:31.981Z,99.27
2018-12-06T07:30:12.247Z,98.31
2018-12-06T07:35:10.193Z,99.11
2018-12-06T07:37:43.325Z,99.31
2018-12-06T07:40:16.439Z,99.59
2018-12-06T07:42:50.036Z,99.76
2018-12-06T07:45:24.051Z,100.00
2018-12-06T07:48:02.245Z,99.78
2018-12-06T07:50:33.480Z,99.60
2018-12-06T07:53:04.491Z,99.65
2018-12-06T07:55:35.341Z,99.57
2018-12-06T07:58:08.568Z,99.51
2018-12-06T08:00:42.167Z,98.88
2018-12-06T08:03:11.393Z,100.00
2018-12-06T08:05:49.112Z,100.00
2018-12-06T08:08:19.612Z,100.00
2018-12-06T08:10:53.392Z,99.11
2018-12-06T08:13:23.779Z,98.98
2018-12-06T08:15:57.717Z,99.65
2018-12-06T08:18:31.730Z,98.92
2018-12-06T08:21:05.198Z,98.77
2018-12-06T08:23:36.466Z,98.88
2018-12-06T08:26:14.205Z,99.55
2018-12-06T08:28:44.760Z,99.59
2018-12-06T08:31:18.776Z,99.33
2018-12-06T08:34:05.971Z,99.79
2018-12-06T08:36:34.014Z,99.15
2018-12-06T08:39:05.446Z,99.69
2018-12-06T08:41:38.666Z,99.75
2018-12-06T08:44:11.765Z,99.85
2018-12-06T08:46:45.140Z,99.04
2018-12-06T08:49:15.972Z,99.30
2018-12-06T08:51:45.341Z,98.87
2018-12-06T08:54:16.279Z,98.56
2018-12-06T08:56:45.296Z,98.40
2018-12-06T08:59:16.204Z,98.37
2018-12-06T09:01:54.213Z,98.70
2018-12-06T09:04:25.367Z,98.26
2018-12-06T09:06:59.155Z,97.34
2018-12-06T09:09:28.357Z,97.98
2018-12-06T09:12:00.481Z,97.93
2018-12-06T09:14:31.293Z,97.46
2018-12-06T09:17:02.319Z,97.35
2018-12-06T09:19:33.486Z,98.30
2018-12-06T09:22:04.617Z,98.11
2018-12-06T09:24:39.280Z,97.49
2018-12-06T09:27:19.213Z,97.55
2018-12-06T09:29:50.504Z,97.73
2018-12-06T09:32:22.692Z,97.25
2018-12-06T09:34:57.309Z,96.91
2018-12-06T09:37:28.553Z,97.12
2018-12-06T09:39:59.672Z,97.80
2018-12-06T09:42:30.901Z,96.52
2018-12-06T09:45:12.000Z,96.80
2018-12-06T09:47:46.694Z,96.38
2018-12-06T09:50:22.335Z,96.86
2018-12-06T09:52:55.962Z,97.13
2018-12-06T09:55:35.305Z,96.52
2018-12-06T09:58:15.078Z,95.88
2018-12-06T10:00:48.373Z,95.81
2018-12-06T10:03:18.862Z,95.93
2018-12-06T10:05:52.660Z,95.21
2018-12-06T10:08:21.922Z,96.18
2018-12-06T10:10:53.281Z,95.36
2018-12-06T10:13:26.960Z,95.07
2018-12-06T10:16:01.012Z,94.79
2018-12-06T10:18:34.136Z,95.11
2018-12-06T10:21:07.268Z,93.84
2018-12-06T10:23:39.279Z,94.63
2018-12-06T10:26:14.456Z,94.73
2018-12-06T10:28:47.764Z,94.61
2018-12-06T10:31:24.847Z,93.86
2018-12-06T10:34:11.082Z,94.20
2018-12-06T10:36:42.101Z,93.76
2018-12-06T10:39:11.325Z,94.53
2018-12-06T10:41:43.170Z,93.58
2018-12-06T10:44:33.596Z,93.27
2018-12-06T10:47:04.334Z,94.04
2018-12-06T10:49:36.525Z,93.41
2018-12-06T10:52:07.789Z,93.38
2018-12-06T10:54:40.440Z,93.00
2018-12-06T10:57:11.592Z,92.33
2018-12-06T10:59:45.600Z,92.40
2018-12-06T11:02:21.296Z,92.48
2018-12-06T11:04:51.917Z,91.71
2018-12-06T11:07:57.948Z,91.70
2018-12-06T11:10:29.097Z,90.51
2018-12-06T11:13:00.017Z,91.24
2018-12-06T11:15:34.036Z,91.35
2018-12-06T11:18:03.174Z,91.03
2018-12-06T11:20:36.992Z,91.16
2018-12-06T11:23:08.725Z,92.10
2018-12-06T11:25:37.431Z,91.79
2018-12-06T11:28:11.101Z,91.53
2018-12-06T11:30:43.305Z,91.11
2018-12-06T11:33:17.105Z,90.80
2018-12-06T11:35:51.092Z,90.54
2018-12-06T11:38:23.250Z,90.17
2018-12-06T11:40:57.075Z,90.16
2018-12-06T11:43:31.105Z,89.59
2018-12-06T11:46:05.068Z,89.94
2018-12-06T11:48:46.782Z,89.22
2018-12-06T11:51:24.793Z,89.77
2018-12-06T11:53:52.176Z,89.40
2018-12-06T11:56:19.638Z,89.56
2018-12-06T11:58:47.024Z,89.32
2018-12-06T12:01:14.556Z,89.42
2018-12-06T12:03:42.868Z,88.23
2018-12-06T12:06:10.367Z,88.92
2018-12-06T12:08:37.764Z,87.67
2018-12-06T12:11:05.149Z,88.43
2018-12-06T12:13:32.543Z,88.36
2018-12-06T12:15:59.988Z,87.74
2018-12-06T12:18:27.386Z,87.38
2018-12-06T12:20:54.827Z,87.86
2018-12-06T12:23:35.934Z,87.23
2018-12-06T12:26:03.381Z,86.38
2018-12-06T12:28:30.793Z,86.63
2018-12-06T12:30:59.116Z,86.46
2018-12-06T12:33:26.519Z,87.34
2018-12-06T12:35:53.924Z,87.51
2018-12-06T12:38:21.401Z,86.17
2018-12-06T12:40:48.785Z,86.07
2018-12-06T12:43:19.592Z,86.19
2018-12-06T12:45:47.035Z,85.68
2018-12-06T12:48:14.428Z,85.56
2018-12-06T12:50:41.825Z,86.12
2018-12-06T12:53:09.220Z,85.33
2018-12-06T12:55:36.704Z,84.79
2018-12-06T12:58:04.208Z,84.47
2018-12-06T13:00:33.552Z,84.81
2018-12-06T13:03:00.944Z,84.89
2018-12-06T13:05:28.344Z,84.63
2018-12-06T13:07:55.763Z,84.18
2018-12-06T13:10:23.165Z,84.56
2018-12-06T13:12:50.544Z,84.72
2018-12-06T13:15:17.928Z,84.85
2018-12-06T13:17:45.353Z,84.05
2018-12-06T13:20:12.741Z,83.30
2018-12-06T13:22:40.123Z,83.67
2018-12-06T13:25:07.664Z,84.28
2018-12-06T13:27:35.125Z,83.87
2018-12-06T13:30:02.517Z,83.59
2018-12-06T13:32:29.892Z,84.21
2018-12-06T13:34:57.341Z,84.15
2018-12-06T13:37:24.736Z,83.98
2018-12-06T13:39:52.182Z,84.18
2018-12-06T13:42:23.531Z,83.70
2018-12-06T13:44:49.023Z,83.22
2018-12-06T13:47:16.453Z,82.81
2018-12-06T13:49:43.849Z,83.23
2018-12-06T13:52:11.237Z,84.29
2018-12-06T13:54:38.635Z,83.39
2018-12-06T13:57:06.027Z,84.18
2018-12-06T13:59:33.463Z,83.47
2018-12-06T14:02:00.863Z,84.37
2018-12-06T14:04:28.363Z,83.54
2018-12-06T14:06:55.839Z,83.14
2018-12-06T14:09:23.259Z,82.78
2018-12-06T14:11:50.747Z,83.04
2018-12-06T14:14:18.231Z,83.31
2018-12-06T14:16:45.617Z,83.21
2018-12-06T14:19:13.005Z,82.85
2018-12-06T14:21:40.395Z,82.07
2018-12-06T14:24:07.833Z,82.91
2018-12-06T14:26:35.230Z,82.16
2018-12-06T14:29:02.633Z,82.27
2018-12-06T14:31:30.037Z,81.96
2018-12-06T14:33:57.438Z,82.53
2018-12-06T14:36:29.323Z,82.62
2018-12-06T14:38:56.860Z,82.53
2018-12-06T14:41:24.312Z,81.79
2018-12-06T14:43:51.728Z,82.33
2018-12-06T14:46:19.129Z,83.15
2018-12-06T14:48:46.510Z,83.13
2018-12-06T14:51:13.912Z,83.27
2018-12-06T14:53:41.311Z,82.90
2018-12-06T14:56:08.767Z,83.59
2018-12-06T14:58:36.153Z,83.52
2018-12-06T15:01:03.649Z,84.53
2018-12-06T15:03:32.021Z,84.12
2018-12-06T15:05:59.414Z,84.22
2018-12-06T15:08:26.830Z,84.76
2018-12-06T15:10:54.220Z,84.27
2018-12-06T15:13:21.601Z,84.28
2018-12-06T15:15:49.043Z,84.73
2018-12-06T15:18:17.373Z,84.59
2018-12-06T15:20:44.986Z,84.46
2018-12-06T15:23:12.588Z,85.17
2018-12-06T15:25:42.017Z,84.58
2018-12-06T15:28:09.792Z,84.57
2018-12-06T15:30:37.333Z,84.17
2018-12-06T15:33:04.921Z,84.57
2018-12-06T15:35:34.535Z,83.32
2018-12-06T15:38:02.043Z,83.77
2018-12-06T15:43:24.123Z,83.84
2018-12-06T15:45:57.445Z,83.79
2018-12-06T15:48:25.056Z,84.05
2018-12-06T15:50:52.638Z,82.56
2018-12-06T15:53:21.248Z,83.27
2018-12-06T15:56:07.709Z,83.65
2018-12-06T15:58:35.323Z,83.56
2018-12-06T16:01:02.892Z,82.85
2018-12-06T16:03:30.449Z,83.57
2018-12-06T16:05:58.102Z,83.11
2018-12-06T16:08:25.704Z,83.20
2018-12-06T16:10:53.268Z,83.91
2018-12-06T16:13:20.667Z,84.20
2018-12-06T16:15:50.945Z,84.40
2018-12-06T16:18:18.601Z,85.26
2018-12-06T16:20:46.062Z,85.62
2018-12-06T16:23:13.452Z,86.18
2018-12-06T16:25:40.836Z,86.12
2018-12-06T16:28:08.244Z,86.19
2018-12-06T16:30:35.656Z,87.20
2018-12-06T16:33:13.089Z,86.67
2018-12-06T16:35:40.469Z,87.40
2018-12-06T16:38:07.872Z,87.44
2018-12-06T16:40:35.274Z,86.76
2018-12-06T16:43:08.363Z,86.55
2018-12-06T16:48:34.909Z,85.85
2018-12-06T16:51:02.302Z,86.13
2018-12-06T16:53:29.692Z,86.49
2018-12-06T16:55:57.093Z,86.15
2018-12-06T16:58:24.471Z,86.13
2018-12-06T17:00:51.853Z,85.95
2018-12-06T17:03:19.244Z,86.33
2018-12-06T17:05:46.633Z,86.15
2018-12-06T17:08:14.112Z,85.43
2018-12-06T17:10:41.504Z,85.54
2018-12-06T17:13:08.899Z,85.68
2018-12-06T17:15:36.303Z,86.15
2018-12-06T17:18:03.760Z,85.88
2018-12-06T17:20:31.142Z,85.55
2018-12-06T17:22:58.532Z,86.47
2018-12-06T17:25:25.972Z,85.49
2018-12-06T17:27:53.369Z,84.60
2018-12-06T17:30:20.758Z,84.94
2018-12-06T17:32:48.164Z,85.09
2018-12-06T17:35:15.561Z,84.05
2018-12-06T17:37:42.950Z,84.03
2018-12-06T17:40:10.464Z,84.17
2018-12-06T17:42:37.937Z,84.60
2018-12-06T17:45:07.844Z,84.62
2018-12-06T17:47:35.323Z,84.99
2018-12-06T17:50:03.612Z,85.37
2018-12-06T17:52:31.061Z,84.96
2018-12-06T17:54:58.443Z,85.67
2018-12-06T17:57:26.813Z,85.10
2018-12-06T17:59:54.228Z,86.15
2018-12-06T18:02:21.617Z,86.35
2018-12-06T18:04:49.016Z,86.44
2018-12-06T18:07:16.399Z,85.31
2018-12-06T18:09:43.796Z,86.37
2018-12-06T18:12:16.856Z,86.21
2018-12-06T18:14:56.795Z,86.95
2018-12-06T18:20:24.731Z,86.76
2018-12-06T18:22:52.138Z,87.36
2018-12-06T18:25:19.648Z,87.73
2018-12-06T18:28:03.950Z,87.78
2018-12-06T18:30:33.349Z,88.19
2018-12-06T18:33:01.717Z,87.87
2018-12-06T18:35:29.159Z,87.78
2018-12-06T18:37:56.547Z,87.60
2018-12-06T18:40:24.051Z,88.14
2018-12-06T18:42:59.209Z,87.64
2018-12-06T18:45:26.617Z,88.54
2018-12-06T18:47:53.999Z,88.23
2018-12-06T18:50:21.397Z,87.50
2018-12-06T18:52:48.809Z,87.87
2018-12-06T18:55:28.790Z,88.33
2018-12-06T18:58:12.872Z,89.07
2018-12-06T19:03:57.956Z,88.73
2018-12-06T19:06:30.412Z,87.94
2018-12-06T19:08:57.913Z,88.61
2018-12-06T19:14:32.174Z,88.67
2018-12-06T19:17:01.676Z,88.56
2018-12-06T19:19:52.438Z,88.20
2018-12-06T19:22:43.875Z,88.70
2018-12-06T19:25:32.103Z,88.36
2018-12-06T19:28:05.412Z,88.84
2018-12-06T19:30:32.800Z,88.89
2018-12-06T19:33:03.281Z,88.81
2018-12-06T19:35:29.654Z,89.28
2018-12-06T19:37:57.296Z,90.00
2018-12-06T19:40:24.697Z,88.26
2018-12-06T19:42:59.230Z,88.85
2018-12-06T19:54:11.345Z,89.14
2018-12-06T19:56:38.738Z,89.40
2018-12-06T19:59:09.604Z,88.59
2018-12-06T20:01:51.568Z,89.39
2018-12-06T20:04:29.448Z,88.77
2018-12-06T20:16:04.877Z,89.83
2018-12-06T20:18:38.855Z,89.05
2018-12-06T20:24:16.568Z,89.06
2018-12-06T20:26:47.032Z,89.38
2018-12-06T20:29:20.348Z,89.14
2018-12-06T20:31:57.721Z,88.43
2018-12-06T20:34:25.121Z,88.78
2018-12-06T20:37:05.317Z,87.75
2018-12-06T20:39:32.712Z,88.00
2018-12-06T20:42:00.102Z,87.89
2018-12-06T20:44:53.633Z,88.17
2018-12-06T20:47:21.032Z,88.16
2018-12-06T20:49:48.446Z,88.30
2018-12-06T20:52:21.814Z,88.35
2018-12-06T20:54:49.198Z,87.78
2018-12-06T21:00:32.143Z,87.58
2018-12-06T21:02:59.535Z,88.57
2018-12-06T21:05:26.979Z,89.20
2018-12-06T21:07:55.913Z,89.12
2018-12-06T21:10:23.749Z,89.29
2018-12-06T21:12:57.773Z,88.09
2018-12-06T21:15:36.438Z,88.78
2018-12-06T21:18:09.853Z,88.60
2018-12-06T21:20:43.905Z,89.18
2018-12-06T21:23:17.925Z,88.50
2018-12-06T21:28:54.524Z,88.25
2018-12-06T21:31:27.942Z,88.10
2018-12-06T21:34:01.246Z,88.39
2018-12-06T21:36:34.432Z,88.40
2018-12-06T21:39:06.864Z,88.61
2018-12-06T21:41:34.317Z,88.77
2018-12-06T21:44:01.741Z,88.21
2018-12-06T21:46:35.564Z,88.83
2018-12-06T21:49:02.967Z,88.45
2018-12-06T21:51:30.444Z,88.14
2018-12-06T21:53:57.833Z,88.22
2018-12-06T21:56:25.242Z,88.13
2018-12-06T21:58:52.628Z,89.15
2018-12-06T22:01:20.035Z,88.34
2018-12-06T22:03:47.420Z,89.19
2018-12-06T22:06:14.832Z,88.10
2018-12-06T22:08:42.229Z,88.32
2018-12-06T22:11:10.193Z,88.62
2018-12-06T22:13:39.588Z,88.10
2018-12-06T22:16:07.095Z,88.56
2018-12-06T22:18:36.537Z,88.32
2018-12-06T22:21:03.981Z,88.74
2018-12-06T22:23:46.315Z,88.61
2018-12-06T22:26:13.696Z,88.33
2018-12-06T22:28:41.089Z,88.18
2018-12-06T22:31:08.475Z,87.92
2018-12-06T22:33:35.871Z,88.59
2018-12-06T22:36:03.316Z,88.35
2018-12-06T22:38:34.162Z,88.23
2018-12-06T22:41:00.113Z,88.28
2018-12-06T22:43:27.509Z,88.20
2018-12-06T22:45:59.249Z,87.53
2018-12-06T22:48:26.645Z,88.65
2018-12-06T22:50:54.121Z,88.45
2018-12-06T22:53:21.660Z,88.34
2018-12-06T22:55:59.240Z,88.58
2018-12-06T22:58:26.639Z,89.12
2018-12-06T23:00:54.635Z,88.89
2018-12-06T23:03:22.439Z,88.54
2018-12-06T23:05:49.979Z,88.65
2018-12-06T23:08:17.434Z,89.08
2018-12-06T23:10:44.873Z,88.36
2018-12-06T23:13:12.265Z,88.32
2018-12-06T23:15:39.658Z,89.31
2018-12-06T23:18:10.838Z,88.46
2018-12-06T23:20:38.229Z,89.59
2018-12-06T23:23:05.628Z,89.62
2018-12-06T23:25:33.012Z,89.67
2018-12-06T23:28:00.411Z,88.85
2018-12-06T23:30:27.797Z,88.06
2018-12-06T23:32:55.188Z,88.62
2018-12-06T23:35:22.655Z,88.58
2018-12-06T23:37:50.092Z,88.07
2018-12-06T23:40:17.559Z,88.22
2018-12-06T23:42:44.944Z,88.76
2018-12-06T23:45:12.341Z,88.65
2018-12-06T23:47:39.726Z,87.44
2018-12-06T23:50:07.198Z,87.56
2018-12-06T23:52:34.575Z,87.88
2018-12-06T23:55:01.979Z,86.95
2018-12-06T23:57:29.453Z,87.07
2018-12-06T23:59:56.909Z,85.90
